KBFM/BFM METAR and TAF weather

Enter ICAO airport designator
Station Type Date Time Source
KBFM METAR 2020/01/19 22:53 UTC NOAA

KBFM 192253Z 34015G23KT 10SM CLR 12/M08 A3029 RMK AO2 SLP256 T01171078


Station Type Date Time Source
KBFM Decoded METAR 2020/01/19 22:53 UTC NOAA

MOBILE DOWNTOWN AIRPORT, AL, United States (KBFM) 30-38N 88-04W 20M
Jan 19, 2020 - 05:53 PM EST / 2020.01.19 2253 UTC
Wind: from the NNW (340 degrees) at 17 MPH (15 KT) gusting to 26 MPH (23 KT):0
Visibility: 10 mile(s):0
Sky conditions: clear
Temperature: 53.1 F (11.7 C)
Dew Point: 18.0 F (-7.8 C)
Relative Humidity: 24%
Pressure (altimeter): 30.29 in. Hg (1025 hPa)
ob: KBFM 192253Z 34015G23KT 10SM CLR 12/M08 A3029 RMK AO2 SLP256 T01171078
cycle: 23

Station Type Date Time Source
KBFM TAF 2020/01/19 18:30 UTC NOAA

TAF KBFM 191729Z 1918/2018 34018G26KT P6SM SCT080 BKN250
FM192300 34012KT P6SM FEW250

Example: see airport list